Time;durP1;ratioP1;P1;durP2;ratioP2;P2;SDS_P1;SDS_P2;PMS_P1;PMS_P2;Temp;Humidity;BMP_temperature;BMP_pressure;BME280_temperature;BME280_humidity;BME280_pressure;Samples;Min_cycle;Max_cycle;Signal;HPM_P1;HPM_P2
2024/01/24 00:00:08;;;;;;;6.82;2.00;;;;;;;11.00;71.61;97845.06;4870031;29;20040;-81
2024/01/24 00:02:33;;;;;;;5.60;2.25;;;;;;;10.94;72.56;97854.59;4869747;29;20070;-80
2024/01/24 00:04:59;;;;;;;7.70;1.88;;;;;;;10.80;73.39;97851.47;4877007;29;20074;-81
2024/01/24 00:07:25;;;;;;;10.02;2.50;;;;;;;10.77;73.18;97845.91;4886126;29;20764;-81
2024/01/24 00:09:50;;;;;;;8.23;2.22;;;;;;;11.02;71.96;97856.09;4898654;29;20035;-80
2024/01/24 00:12:16;;;;;;;4.35;1.80;;;;;;;11.03;72.45;97842.78;4873647;29;20046;-80
2024/01/24 00:14:41;;;;;;;7.88;1.85;;;;;;;11.10;72.10;97852.31;4872999;29;20043;-81
2024/01/24 00:17:07;;;;;;;6.15;1.75;;;;;;;11.03;72.33;97847.22;4865450;29;20044;-81
2024/01/24 00:19:33;;;;;;;9.10;2.30;;;;;;;11.25;71.52;97863.03;4869978;29;20042;-81
2024/01/24 00:21:59;;;;;;;7.05;1.90;;;;;;;11.27;71.86;97862.81;4873278;29;20039;-81
2024/01/24 00:24:24;;;;;;;5.35;2.10;;;;;;;10.90;72.69;97848.28;4878509;29;20070;-82
2024/01/24 00:26:49;;;;;;;7.93;2.95;;;;;;;10.62;74.51;97828.94;4872126;29;20070;-80
2024/01/24 00:29:15;;;;;;;4.53;1.83;;;;;;;10.95;72.50;97839.75;4884065;29;20057;-80
2024/01/24 00:31:40;;;;;;;8.30;1.90;;;;;;;11.29;72.26;97845.13;4858437;29;20562;-80
2024/01/24 00:34:06;;;;;;;8.60;2.45;;;;;;;11.41;71.45;97843.25;4885449;29;20055;-80
2024/01/24 00:36:31;;;;;;;6.68;2.45;;;;;;;11.35;71.12;97841.59;4890889;29;20044;-81
2024/01/24 00:38:56;;;;;;;5.25;1.98;;;;;;;11.49;71.48;97844.72;4880489;29;20036;-80
2024/01/24 00:41:22;;;;;;;6.13;2.45;;;;;;;11.20;72.28;97831.66;4878217;29;20035;-79
2024/01/24 00:43:47;;;;;;;12.02;2.20;;;;;;;11.02;73.39;97836.03;4868986;29;20389;-82
2024/01/24 00:46:13;;;;;;;6.55;2.22;;;;;;;11.32;72.27;97835.00;4889676;29;20653;-80
2024/01/24 00:48:38;;;;;;;8.38;2.10;;;;;;;11.36;72.10;97828.31;4896123;29;20511;-82
2024/01/24 00:51:03;;;;;;;10.60;2.45;;;;;;;11.39;71.50;97846.09;4873414;29;20044;-80
2024/01/24 00:53:29;;;;;;;4.70;2.10;;;;;;;11.24;71.91;97828.38;4876191;29;20047;-81
2024/01/24 00:55:58;;;;;;;5.80;2.53;;;;;;;11.18;72.56;97841.53;4875934;29;20072;-80
2024/01/24 00:58:23;;;;;;;6.28;2.58;;;;;;;11.10;73.31;97823.66;4889804;29;20563;-80
2024/01/24 01:00:50;;;;;;;6.88;2.17;;;;;;;11.35;71.82;97823.34;4886063;29;20135;-82
2024/01/24 01:03:16;;;;;;;11.20;2.22;;;;;;;11.49;71.57;97835.06;4920648;29;20065;-80
2024/01/24 01:05:41;;;;;;;6.53;1.73;;;;;;;11.59;71.08;97829.25;4885934;29;20036;-83
2024/01/24 01:08:06;;;;;;;9.40;3.45;;;;;;;11.28;72.29;97825.31;4902979;29;20036;-84
2024/01/24 01:10:32;;;;;;;5.28;2.55;;;;;;;11.11;71.94;97813.00;4904235;29;20175;-82
2024/01/24 01:12:57;;;;;;;6.78;1.70;;;;;;;11.05;73.26;97813.91;4907041;29;20051;-81
2024/01/24 01:15:24;;;;;;;7.93;2.05;;;;;;;11.27;72.83;97816.66;4914631;29;21242;-80
2024/01/24 01:17:50;;;;;;;6.82;2.17;;;;;;;11.41;72.06;97817.19;4916854;29;20032;-82
2024/01/24 01:20:19;;;;;;;6.63;2.75;;;;;;;11.28;72.71;97809.66;4905036;29;20040;-81
2024/01/24 01:22:45;;;;;;;5.72;2.15;;;;;;;11.22;71.98;97800.94;4872917;29;20067;-80
2024/01/24 01:25:10;;;;;;;5.32;2.00;;;;;;;11.27;72.96;97806.25;4898790;29;20095;-81
2024/01/24 01:27:36;;;;;;;8.13;2.95;;;;;;;11.32;72.18;97795.13;4903508;29;20043;-78
2024/01/24 01:30:01;;;;;;;5.47;1.73;;;;;;;11.62;71.35;97823.56;4901208;29;20062;-78
2024/01/24 01:32:26;;;;;;;8.57;2.20;;;;;;;11.41;71.84;97802.34;4860761;29;20031;-77
2024/01/24 01:34:54;;;;;;;7.82;2.00;;;;;;;11.32;71.96;97808.94;4886874;29;20064;-78
2024/01/24 01:37:21;;;;;;;8.25;2.08;;;;;;;11.41;72.06;97807.56;4892354;29;20051;-82
2024/01/24 01:39:46;;;;;;;5.28;1.98;;;;;;;11.61;71.64;97798.50;4911400;29;20416;-83
2024/01/24 01:42:12;;;;;;;4.65;1.67;;;;;;;11.52;71.74;97795.50;4888175;29;20044;-82
2024/01/24 01:44:43;;;;;;;7.65;2.42;;;;;;;11.71;71.04;97790.84;4904585;29;20611;-84
2024/01/24 01:47:08;;;;;;;8.02;1.80;;;;;;;11.56;72.41;97782.75;4918193;29;20126;-80
2024/01/24 01:49:34;;;;;;;5.70;2.70;;;;;;;11.37;72.55;97782.97;4889404;29;20130;-81
2024/01/24 01:51:59;;;;;;;7.88;2.05;;;;;;;11.60;71.86;97778.66;4904973;29;20408;-80
2024/01/24 01:54:24;;;;;;;4.00;1.70;;;;;;;11.52;72.20;97779.84;4913764;29;20507;-82
2024/01/24 01:56:50;;;;;;;6.78;1.73;;;;;;;11.66;71.91;97788.16;4903841;29;21299;-82
2024/01/24 01:59:15;;;;;;;6.45;2.13;;;;;;;11.49;72.43;97792.56;4883588;29;20500;-81
2024/01/24 02:01:42;;;;;;;5.22;2.03;;;;;;;11.64;71.57;97790.22;4881693;29;20044;-80
2024/01/24 02:04:08;;;;;;;6.32;2.25;;;;;;;11.46;73.02;97803.44;4895192;29;20264;-80
2024/01/24 02:06:33;;;;;;;7.28;2.28;;;;;;;11.52;72.68;97797.31;4897101;29;20114;-81
2024/01/24 02:08:58;;;;;;;8.65;2.05;;;;;;;11.73;71.69;97806.25;4929270;29;20035;-82
2024/01/24 02:11:24;;;;;;;5.90;2.20;;;;;;;11.46;72.86;97782.59;4892233;29;20476;-82
2024/01/24 02:13:54;;;;;;;5.07;1.67;;;;;;;11.65;72.21;97775.34;4929815;29;20399;-82
2024/01/24 02:16:22;;;;;;;4.78;1.80;;;;;;;11.62;72.45;97774.00;4930702;29;20039;-82
2024/01/24 02:18:48;;;;;;;5.65;1.70;;;;;;;11.65;72.26;97764.91;4907393;29;20115;-81
2024/01/24 02:21:14;;;;;;;5.07;1.77;;;;;;;11.47;73.76;97765.94;4904208;29;20032;-81
2024/01/24 02:23:40;;;;;;;5.03;1.83;;;;;;;11.66;72.74;97756.06;4883467;29;20400;-82
2024/01/24 02:26:05;;;;;;;6.88;2.08;;;;;;;11.14;74.43;97763.00;4891258;29;20059;-81
2024/01/24 02:28:30;;;;;;;9.93;2.72;;;;;;;11.47;73.73;97765.94;4915275;29;20109;-80
2024/01/24 02:30:56;;;;;;;6.85;2.50;;;;;;;11.51;73.04;97765.22;4913317;29;20043;-81
2024/01/24 02:33:21;;;;;;;6.13;2.55;;;;;;;11.59;73.42;97777.88;4926775;29;20085;-79
2024/01/24 02:35:46;;;;;;;3.53;1.92;;;;;;;11.54;73.47;97772.56;4894311;29;20034;-78
2024/01/24 02:38:12;;;;;;;7.07;2.25;;;;;;;11.62;72.41;97782.63;4915193;29;20126;-77
2024/01/24 02:40:37;;;;;;;5.00;1.63;;;;;;;11.89;72.48;97783.81;4894742;29;20521;-78
2024/01/24 02:43:03;;;;;;;5.57;2.50;;;;;;;11.34;73.81;97783.44;4909091;29;20064;-77
2024/01/24 02:45:28;;;;;;;4.32;1.40;;;;;;;11.61;73.52;97790.66;4887462;29;20480;-78
2024/01/24 02:47:54;;;;;;;4.43;1.90;;;;;;;11.64;73.14;97785.00;4894680;29;20031;-82
2024/01/24 02:50:19;;;;;;;3.88;2.25;;;;;;;11.77;73.08;97774.25;4912826;29;20048;-79
2024/01/24 02:52:44;;;;;;;5.15;1.92;;;;;;;11.78;72.08;97790.69;4894761;29;20055;-80
2024/01/24 02:55:14;;;;;;;3.90;1.80;;;;;;;11.81;72.11;97777.19;4892701;29;20032;-81
2024/01/24 02:57:40;;;;;;;5.68;1.90;;;;;;;11.65;73.28;97778.72;4872633;29;20040;-81
2024/01/24 03:00:07;;;;;;;6.28;1.75;;;;;;;11.67;73.17;97794.97;4892911;29;20032;-80
2024/01/24 03:02:32;;;;;;;4.38;2.30;;;;;;;11.60;73.82;97779.47;4882120;29;20038;-80
2024/01/24 03:04:58;;;;;;;6.10;1.77;;;;;;;11.68;73.98;97770.44;4923827;29;20039;-80
2024/01/24 03:07:23;;;;;;;4.20;1.67;;;;;;;11.74;73.46;97755.69;4907642;29;20037;-80
2024/01/24 03:09:49;;;;;;;8.23;2.05;;;;;;;11.84;73.24;97755.84;4896775;29;20184;-80
2024/01/24 03:12:14;;;;;;;4.25;1.88;;;;;;;11.86;73.65;97777.25;4896004;29;20043;-81
2024/01/24 03:14:40;;;;;;;3.63;2.08;;;;;;;11.83;72.59;97762.06;4885348;29;20040;-81
2024/01/24 03:17:05;;;;;;;5.22;2.00;;;;;;;11.65;74.59;97749.25;4906220;29;20200;-81
2024/01/24 03:19:30;;;;;;;6.03;2.08;;;;;;;11.61;74.65;97741.13;4915099;29;20113;-81
2024/01/24 03:21:56;;;;;;;4.60;1.85;;;;;;;11.80;73.23;97758.09;4910942;29;20159;-81
2024/01/24 03:24:21;;;;;;;4.10;2.10;;;;;;;11.70;73.89;97734.47;4897768;29;20043;-80
2024/01/24 03:26:47;;;;;;;4.22;2.33;;;;;;;11.44;75.28;97744.50;4877030;29;20036;-81
2024/01/24 03:29:12;;;;;;;3.70;2.30;;;;;;;11.72;73.79;97732.44;4906392;29;20103;-82
2024/01/24 03:31:42;;;;;;;5.18;2.55;;;;;;;11.47;74.60;97735.41;4900692;29;20129;-81
2024/01/24 03:34:07;;;;;;;6.32;2.00;;;;;;;11.72;73.86;97723.81;4916628;29;20039;-80
2024/01/24 03:36:33;;;;;;;5.60;2.60;;;;;;;11.78;74.54;97726.25;4896177;29;20036;-81
2024/01/24 03:38:59;;;;;;;4.28;2.58;;;;;;;11.80;73.42;97726.03;4915030;29;20075;-84
2024/01/24 03:41:24;;;;;;;2.53;1.88;;;;;;;11.84;73.70;97723.72;4898545;29;20028;-84
2024/01/24 03:43:49;;;;;;;3.13;1.77;;;;;;;11.86;73.87;97745.94;4916131;29;20099;-81
2024/01/24 03:46:19;;;;;;;4.65;2.10;;;;;;;11.70;74.68;97752.72;4894440;29;20036;-79
2024/01/24 03:48:44;;;;;;;6.50;2.63;;;;;;;11.61;75.36;97767.19;4897013;29;20035;-80
2024/01/24 03:51:11;;;;;;;3.20;2.22;;;;;;;11.81;74.47;97772.75;4906520;29;20381;-84
2024/01/24 03:53:36;;;;;;;3.70;2.42;;;;;;;11.70;74.93;97768.38;4919400;29;20055;-79
2024/01/24 03:56:02;;;;;;;3.83;2.72;;;;;;;11.83;74.51;97750.84;4912736;29;20488;-81
2024/01/24 03:58:27;;;;;;;2.63;2.17;;;;;;;11.99;74.60;97744.84;4922310;29;20116;-83
2024/01/24 04:00:55;;;;;;;3.17;1.98;;;;;;;11.97;74.61;97758.13;4898264;29;20043;-80
2024/01/24 04:03:20;;;;;;;2.90;2.05;;;;;;;12.11;73.52;97766.41;4902828;29;20028;-81
2024/01/24 04:05:46;;;;;;;5.22;2.20;;;;;;;12.14;73.69;97763.34;4896862;29;20441;-80
2024/01/24 04:08:11;;;;;;;3.03;2.00;;;;;;;12.18;73.74;97759.25;4882547;29;20090;-81
2024/01/24 04:10:37;;;;;;;6.18;1.90;;;;;;;12.13;74.59;97761.78;4885411;29;20040;-80
2024/01/24 04:13:03;;;;;;;2.60;1.70;;;;;;;12.06;74.40;97742.06;4905352;29;20283;-80
2024/01/24 04:15:28;;;;;;;2.88;1.90;;;;;;;12.10;73.94;97730.94;4912547;29;20031;-83
2024/01/24 04:17:54;;;;;;;2.50;1.50;;;;;;;12.25;74.75;97738.19;4899385;29;20092;-80
2024/01/24 04:20:19;;;;;;;2.10;1.80;;;;;;;12.28;73.85;97745.50;4893515;29;20040;-83
2024/01/24 04:22:45;;;;;;;4.75;2.08;;;;;;;12.28;74.53;97729.84;4892932;29;20071;-82
2024/01/24 04:25:10;;;;;;;2.72;1.80;;;;;;;12.17;74.10;97730.75;4912686;29;20473;-80
2024/01/24 04:27:38;;;;;;;2.05;1.77;;;;;;;12.01;75.18;97726.34;4875751;29;20421;-81
2024/01/24 04:30:04;;;;;;;1.95;1.33;;;;;;;12.28;74.15;97702.97;4890331;29;20043;-80
2024/01/24 04:32:30;;;;;;;3.65;2.55;;;;;;;12.19;75.46;97702.59;4900983;29;20074;-83
2024/01/24 04:34:56;;;;;;;1.98;1.77;;;;;;;12.03;74.68;97698.19;4897242;29;20051;-82
2024/01/24 04:37:21;;;;;;;3.20;1.63;;;;;;;12.29;74.50;97696.72;4892249;29;20033;-83
2024/01/24 04:39:47;;;;;;;3.22;2.92;;;;;;;12.18;74.52;97696.59;4891051;29;20032;-82
2024/01/24 04:42:12;;;;;;;1.90;1.50;;;;;;;12.11;76.20;97700.38;4900134;29;20039;-80
2024/01/24 04:44:38;;;;;;;2.33;1.58;;;;;;;12.41;74.43;97696.59;4924482;29;20385;-82
2024/01/24 04:47:03;;;;;;;2.83;1.50;;;;;;;12.23;75.54;97711.50;4888608;29;20484;-82
2024/01/24 04:49:29;;;;;;;2.65;1.60;;;;;;;12.35;74.71;97688.72;4882124;29;20047;-82
2024/01/24 04:51:54;;;;;;;3.65;1.55;;;;;;;12.44;75.07;97702.13;4899434;29;20040;-82
2024/01/24 04:54:19;;;;;;;5.07;1.58;;;;;;;12.57;73.80;97697.56;4898580;29;20040;-80
2024/01/24 04:56:46;;;;;;;1.60;1.17;;;;;;;12.49;75.16;97707.41;4873102;29;20095;-81
2024/01/24 04:59:18;;;;;;;3.80;1.50;;;;;;;12.64;74.57;97690.31;4911356;29;20492;-80
2024/01/24 05:01:43;;;;;;;2.20;1.70;;;;;;;12.58;74.17;97697.31;4906498;29;20032;-81
2024/01/24 05:04:09;;;;;;;2.15;1.00;;;;;;;12.58;74.06;97714.78;4894022;29;20166;-83
2024/01/24 05:06:35;;;;;;;1.45;0.95;;;;;;;12.64;74.41;97714.63;4892195;29;20036;-83
2024/01/24 05:09:02;;;;;;;2.53;1.10;;;;;;;12.60;74.87;97737.03;4887798;29;20040;-79
2024/01/24 05:11:27;;;;;;;1.58;1.05;;;;;;;12.66;74.04;97727.44;4875255;29;20128;-79
2024/01/24 05:13:55;;;;;;;1.92;0.90;;;;;;;12.66;73.95;97714.38;4907280;29;20102;-80
2024/01/24 05:16:20;;;;;;;1.23;0.93;;;;;;;12.80;74.27;97718.22;4894239;29;20199;-79
2024/01/24 05:18:45;;;;;;;1.45;0.88;;;;;;;12.85;73.35;97735.75;4898254;29;20092;-79
2024/01/24 05:21:11;;;;;;;1.20;0.90;;;;;;;12.65;75.09;97728.50;4893058;29;20123;-78
2024/01/24 05:23:36;;;;;;;1.00;0.60;;;;;;;12.34;75.53;97720.28;4906399;29;20432;-79
2024/01/24 05:26:02;;;;;;;1.15;0.60;;;;;;;12.81;73.74;97719.00;4904939;29;20046;-77
2024/01/24 05:28:27;;;;;;;1.05;0.50;;;;;;;12.71;74.83;97719.66;4891915;29;20469;-79
2024/01/24 05:30:52;;;;;;;0.80;0.60;;;;;;;12.67;74.29;97708.91;4898889;29;20122;-82
2024/01/24 05:33:18;;;;;;;1.38;0.75;;;;;;;12.92;74.12;97716.25;4893317;29;20051;-78
2024/01/24 05:35:45;;;;;;;0.47;0.40;;;;;;;12.77;74.07;97705.63;4875815;29;20038;-81
2024/01/24 05:38:11;;;;;;;1.15;0.77;;;;;;;12.81;73.84;97722.38;4911796;29;20373;-79
2024/01/24 05:40:36;;;;;;;0.57;0.50;;;;;;;12.90;74.27;97707.88;4907553;29;20051;-78
2024/01/24 05:43:02;;;;;;;1.33;0.45;;;;;;;12.75;74.68;97715.53;4912033;29;20118;-79
2024/01/24 05:45:28;;;;;;;0.50;0.50;;;;;;;12.71;75.21;97727.50;4896771;29;20036;-80
2024/01/24 05:47:53;;;;;;;0.68;0.50;;;;;;;12.84;74.44;97732.34;4896709;29;20035;-79
2024/01/24 05:50:22;;;;;;;0.85;0.57;;;;;;;12.99;74.35;97728.31;4905465;29;20436;-80
2024/01/24 05:52:47;;;;;;;0.90;0.45;;;;;;;12.74;74.81;97724.41;4932651;29;20556;-79
2024/01/24 05:55:13;;;;;;;0.98;0.63;;;;;;;13.05;74.00;97693.34;4916695;29;20151;-79
2024/01/24 05:57:39;;;;;;;1.35;0.47;;;;;;;12.95;74.67;97699.25;4894517;29;20122;-79
2024/01/24 06:00:08;;;;;;;1.02;0.40;;;;;;;13.01;74.53;97695.69;4921851;29;20389;-79
2024/01/24 06:02:35;;;;;;;0.65;0.60;;;;;;;12.78;75.56;97683.66;4917322;29;20070;-78
2024/01/24 06:05:00;;;;;;;0.75;0.40;;;;;;;12.97;74.46;97705.06;4921062;29;20043;-80
2024/01/24 06:07:26;;;;;;;0.85;0.60;;;;;;;13.07;74.23;97701.72;4889635;29;20028;-80
2024/01/24 06:09:51;;;;;;;0.50;0.47;;;;;;;13.13;73.94;97705.97;4887511;29;20403;-81
2024/01/24 06:12:16;;;;;;;0.60;0.60;;;;;;;12.99;74.69;97696.94;4911905;29;20039;-78
2024/01/24 06:14:42;;;;;;;0.40;0.40;;;;;;;13.18;73.96;97706.03;4927749;29;20051;-79
2024/01/24 06:17:07;;;;;;;0.70;0.70;;;;;;;13.15;74.67;97698.69;4934095;29;20119;-79
2024/01/24 06:19:32;;;;;;;1.02;0.52;;;;;;;13.24;74.54;97718.09;4900399;29;20563;-82
2024/01/24 06:21:58;;;;;;;1.98;0.52;;;;;;;13.09;73.86;97724.00;4897548;29;20484;-83
2024/01/24 06:24:23;;;;;;;0.90;0.60;;;;;;;13.10;75.16;97727.38;4919097;29;20419;-83
2024/01/24 06:26:48;;;;;;;1.52;0.75;;;;;;;13.20;75.19;97743.19;4906366;29;20508;-81
2024/01/24 06:29:14;;;;;;;0.70;0.60;;;;;;;13.15;75.32;97727.44;4922319;29;20104;-86
2024/01/24 06:31:39;;;;;;;0.90;0.75;;;;;;;13.27;74.92;97729.91;4899680;29;20086;-83
2024/01/24 06:34:04;;;;;;;0.60;0.60;;;;;;;13.24;74.92;97717.31;4915808;29;20115;-82
2024/01/24 06:36:30;;;;;;;0.95;0.77;;;;;;;13.26;74.42;97723.09;4885594;29;20420;-85
2024/01/24 06:38:55;;;;;;;1.48;0.60;;;;;;;13.18;75.45;97711.25;4892969;29;20032;-81
2024/01/24 06:41:20;;;;;;;0.70;0.70;;;;;;;13.21;74.59;97721.22;4912399;29;20118;-85
2024/01/24 06:43:46;;;;;;;1.20;0.70;;;;;;;13.20;75.16;97717.03;4905158;29;20036;-82
2024/01/24 06:46:11;;;;;;;0.80;0.80;;;;;;;13.26;75.06;97710.81;4894818;29;20136;-81
2024/01/24 06:48:37;;;;;;;0.85;0.57;;;;;;;13.37;74.67;97721.41;4896709;29;20055;-82
2024/01/24 06:51:02;;;;;;;1.33;0.73;;;;;;;13.23;75.10;97708.69;4904542;29;20032;-83
2024/01/24 06:53:28;;;;;;;0.90;0.73;;;;;;;13.33;75.11;97715.84;4884591;29;20035;-84
2024/01/24 06:55:53;;;;;;;0.73;0.73;;;;;;;13.33;75.65;97730.75;4922811;29;20047;-81
2024/01/24 06:58:18;;;;;;;1.25;0.60;;;;;;;13.40;74.80;97731.34;4884493;29;20350;-83
2024/01/24 07:00:44;;;;;;;0.60;0.52;;;;;;;13.49;74.88;97746.34;4919810;29;20036;-81
2024/01/24 07:03:09;;;;;;;1.58;0.70;;;;;;;13.38;74.86;97743.88;4910821;29;20027;-86
2024/01/24 07:05:35;;;;;;;0.75;0.60;;;;;;;13.52;74.89;97747.69;4906311;29;20040;-81
2024/01/24 07:08:00;;;;;;;1.17;0.60;;;;;;;13.57;74.00;97739.06;4916500;29;20031;-81
2024/01/24 07:10:26;;;;;;;0.70;0.45;;;;;;;13.51;74.85;97733.03;4922853;29;20043;-81
2024/01/24 07:12:51;;;;;;;0.50;0.50;;;;;;;13.55;74.61;97749.00;4883869;29;20042;-81
2024/01/24 07:15:17;;;;;;;0.90;0.70;;;;;;;13.51;75.38;97743.47;4923434;29;20036;-83
2024/01/24 07:17:43;;;;;;;1.38;0.88;;;;;;;13.60;74.63;97746.44;4898741;29;20036;-83
2024/01/24 07:20:09;;;;;;;0.85;0.50;;;;;;;13.49;75.02;97762.03;4891498;29;20095;-82
2024/01/24 07:22:35;;;;;;;0.65;0.40;;;;;;;13.63;75.37;97772.88;4893802;29;20518;-80
2024/01/24 07:25:01;;;;;;;0.55;0.45;;;;;;;13.48;74.61;97778.75;4922139;29;20036;-79
2024/01/24 07:27:27;;;;;;;0.43;0.43;;;;;;;13.42;75.52;97774.53;4895609;29;20174;-82
2024/01/24 07:29:53;;;;;;;0.95;0.85;;;;;;;13.70;74.87;97769.28;4918212;29;20035;-79
2024/01/24 07:32:18;;;;;;;0.95;0.55;;;;;;;13.61;75.54;97764.50;4890537;29;20043;-81
2024/01/24 07:34:43;;;;;;;0.77;0.40;;;;;;;13.46;75.88;97766.97;4883210;29;20036;-79
2024/01/24 07:37:09;;;;;;;1.55;0.35;;;;;;;13.64;74.88;97768.44;4907749;29;20504;-79
2024/01/24 07:39:35;;;;;;;0.88;0.50;;;;;;;13.53;75.61;97770.19;4932813;29;20038;-80
2024/01/24 07:42:00;;;;;;;0.40;0.40;;;;;;;13.74;75.29;97793.91;4907035;29;20175;-79
2024/01/24 07:44:26;;;;;;;1.83;1.38;;;;;;;13.73;75.29;97823.75;4894248;29;20399;-79
2024/01/24 07:46:52;;;;;;;1.23;0.50;;;;;;;13.76;74.69;97823.22;4895113;29;20028;-79
2024/01/24 07:49:17;;;;;;;0.93;0.70;;;;;;;13.96;75.10;97822.63;4942806;29;20035;-79
2024/01/24 07:51:46;;;;;;;0.50;0.50;;;;;;;13.80;74.95;97795.53;4917579;29;20416;-80
2024/01/24 07:54:12;;;;;;;0.52;0.45;;;;;;;13.73;75.17;97797.56;4888646;29;20126;-79
2024/01/24 07:56:38;;;;;;;0.40;0.40;;;;;;;13.77;74.88;97798.66;4878265;29;20032;-79
2024/01/24 07:59:05;;;;;;;0.60;0.50;;;;;;;13.78;74.96;97805.47;4896021;29;20512;-80
2024/01/24 08:01:30;;;;;;;0.47;0.47;;;;;;;13.96;74.66;97802.44;4883277;29;20127;-80
2024/01/24 08:04:00;;;;;;;0.45;0.40;;;;;;;13.79;75.81;97807.03;4914929;29;20062;-81
2024/01/24 08:06:26;;;;;;;0.73;0.47;;;;;;;13.81;74.53;97795.28;4900781;29;20091;-80
2024/01/24 08:08:51;;;;;;;1.13;0.60;;;;;;;13.86;74.59;97802.38;4892125;29;20027;-80
2024/01/24 08:11:17;;;;;;;0.40;0.40;;;;;;;13.96;75.87;97806.91;4891815;29;20054;-80
2024/01/24 08:13:43;;;;;;;0.45;0.40;;;;;;;13.83;74.69;97802.91;4893157;29;20035;-81
2024/01/24 08:16:09;;;;;;;0.50;0.30;;;;;;;14.16;74.35;97816.75;4920130;29;20051;-81
2024/01/24 08:18:35;;;;;;;0.38;0.38;;;;;;;14.25;74.33;97815.22;4913640;29;20083;-82
2024/01/24 08:21:00;;;;;;;0.70;0.50;;;;;;;14.31;74.24;97834.38;4890284;29;20038;-81
2024/01/24 08:23:25;;;;;;;0.30;0.30;;;;;;;13.91;75.69;97830.44;4897546;29;20042;-80
2024/01/24 08:25:51;;;;;;;0.50;0.47;;;;;;;13.81;76.07;97825.88;4906861;29;20032;-80
2024/01/24 08:28:16;;;;;;;0.47;0.40;;;;;;;13.99;75.00;97836.00;4882866;29;20027;-81
2024/01/24 08:30:42;;;;;;;0.88;0.50;;;;;;;14.12;74.48;97852.31;4871599;29;20063;-81
2024/01/24 08:33:08;;;;;;;0.40;0.40;;;;;;;14.22;75.15;97852.41;4888905;29;20059;-80
2024/01/24 08:35:35;;;;;;;0.30;0.30;;;;;;;14.32;73.98;97857.72;4901473;29;20476;-79
2024/01/24 08:38:02;;;;;;;0.40;0.40;;;;;;;14.53;73.38;97856.03;4893344;29;20039;-80
2024/01/24 08:40:27;;;;;;;1.17;0.70;;;;;;;14.39;74.38;97855.69;4889215;29;20083;-84
2024/01/24 08:42:52;;;;;;;0.55;0.47;;;;;;;14.54;73.54;97859.44;4887304;29;20488;-83
2024/01/24 08:45:18;;;;;;;0.98;0.88;;;;;;;14.51;73.70;97867.78;4895931;29;20566;-83
2024/01/24 08:47:43;;;;;;;0.90;0.50;;;;;;;14.26;74.49;97869.22;4892381;29;20039;-82
2024/01/24 08:50:09;;;;;;;0.50;0.40;;;;;;;14.56;73.11;97883.56;4903052;29;20399;-85
2024/01/24 08:52:35;;;;;;;1.08;0.32;;;;;;;14.46;73.08;97884.25;4895997;29;20036;-83
2024/01/24 08:55:00;;;;;;;0.88;0.30;;;;;;;14.43;73.15;97890.03;4894898;29;20556;-82
2024/01/24 08:57:26;;;;;;;0.40;0.30;;;;;;;14.27;73.60;97896.19;4904282;29;20042;-81
2024/01/24 08:59:54;;;;;;;0.82;0.47;;;;;;;14.03;73.70;97879.00;4891196;29;20119;-83
2024/01/24 09:02:20;;;;;;;0.75;0.30;;;;;;;13.97;73.83;97898.28;4912814;29;20048;-82
2024/01/24 09:04:46;;;;;;;0.43;0.30;;;;;;;13.91;72.95;97888.81;4884913;29;20094;-83
2024/01/24 09:07:14;;;;;;;0.95;0.30;;;;;;;14.34;71.84;97881.03;4911325;29;20408;-82
2024/01/24 09:09:40;;;;;;;1.08;0.30;;;;;;;14.38;71.94;97887.38;4921808;29;20038;-83
2024/01/24 09:12:05;;;;;;;0.60;0.52;;;;;;;14.30;71.52;97899.09;4889661;29;20047;-82
2024/01/24 09:14:31;;;;;;;2.22;0.85;;;;;;;14.32;70.75;97880.50;4902167;29;20046;-84
2024/01/24 09:16:56;;;;;;;2.45;0.40;;;;;;;14.33;70.51;97895.97;4921727;29;20042;-82
2024/01/24 09:19:22;;;;;;;2.72;0.68;;;;;;;14.15;70.55;97894.50;4902342;29;20040;-83
2024/01/24 09:21:48;;;;;;;0.85;0.40;;;;;;;14.09;70.57;97908.63;4914189;29;20175;-81
2024/01/24 09:24:14;;;;;;;0.85;0.30;;;;;;;14.01;70.57;97920.31;4901665;29;20118;-83
2024/01/24 09:26:39;;;;;;;5.85;0.88;;;;;;;14.00;71.05;97917.94;4902157;29;20032;-85
2024/01/24 09:29:04;;;;;;;3.70;0.70;;;;;;;13.87;70.20;97929.63;4883244;29;20146;-82
2024/01/24 09:31:30;;;;;;;3.15;0.70;;;;;;;13.44;72.34;97932.03;4885607;29;20102;-82
2024/01/24 09:33:55;;;;;;;0.52;0.40;;;;;;;13.61;72.44;97916.25;4901763;29;20039;-82
2024/01/24 09:36:23;;;;;;;1.88;0.50;;;;;;;13.80;71.26;97908.88;4903672;29;20499;-87
2024/01/24 09:38:49;;;;;;;6.47;1.25;;;;;;;13.98;71.16;97926.06;4902040;29;20039;-85
2024/01/24 09:41:20;;;;;;;2.70;1.10;;;;;;;14.17;70.33;97933.56;4906541;29;20167;-86
2024/01/24 09:43:47;;;;;;;3.85;0.80;;;;;;;13.99;70.91;97932.88;4904692;29;20047;-85
2024/01/24 09:46:16;;;;;;;2.13;0.70;;;;;;;14.08;69.71;97935.84;4897713;29;20070;-85
2024/01/24 09:48:44;;;;;;;3.08;0.80;;;;;;;13.92;70.87;97939.34;4901501;29;20036;-80
2024/01/24 09:51:10;;;;;;;3.47;0.80;;;;;;;13.82;70.97;97948.66;4910896;29;20032;-80
2024/01/24 09:53:38;;;;;;;2.75;1.02;;;;;;;13.67;71.08;97961.59;4889068;29;20047;-80
2024/01/24 09:56:03;;;;;;;3.72;1.00;;;;;;;13.66;71.55;97979.13;4921157;29;20497;-81
2024/01/24 09:58:29;;;;;;;4.20;0.80;;;;;;;13.91;69.79;97997.97;4933304;29;20119;-81
2024/01/24 10:00:55;;;;;;;3.58;0.90;;;;;;;13.60;71.10;97987.16;4912696;29;20404;-79
2024/01/24 10:03:21;;;;;;;1.85;0.60;;;;;;;13.96;70.17;97984.94;4897351;29;20050;-79
2024/01/24 10:05:48;;;;;;;4.32;1.02;;;;;;;14.09;68.68;97976.69;4912877;29;20484;-80
2024/01/24 10:08:15;;;;;;;1.90;1.13;;;;;;;14.13;69.68;97966.53;4916192;29;20090;-79
2024/01/24 10:10:42;;;;;;;3.25;1.10;;;;;;;13.84;69.57;97983.25;4901048;29;20043;-78
2024/01/24 10:13:07;;;;;;;3.60;0.80;;;;;;;13.99;68.76;97979.22;4892228;29;20039;-81
2024/01/24 10:15:35;;;;;;;3.83;0.88;;;;;;;13.74;69.47;97972.66;4913017;29;20047;-77
2024/01/24 10:18:01;;;;;;;8.10;1.33;;;;;;;13.78;68.59;97965.13;4903860;29;20480;-80
2024/01/24 10:20:26;;;;;;;3.25;1.23;;;;;;;14.01;69.16;97972.69;4931874;29;20039;-79
2024/01/24 10:22:53;;;;;;;4.30;1.73;;;;;;;14.15;68.73;97967.06;4917154;29;20468;-79
2024/01/24 10:25:18;;;;;;;3.00;1.17;;;;;;;14.14;67.54;97978.59;4915861;29;20066;-79
2024/01/24 10:27:44;;;;;;;3.58;1.35;;;;;;;14.28;67.25;97974.53;4900200;29;20378;-78
2024/01/24 10:30:11;;;;;;;3.58;1.10;;;;;;;14.04;66.96;97972.19;4909290;29;20075;-78
2024/01/24 10:32:37;;;;;;;2.85;0.65;;;;;;;13.73;67.23;97983.41;4902589;29;20032;-78
2024/01/24 10:35:06;;;;;;;3.10;1.10;;;;;;;14.22;67.20;97973.69;4911702;29;20104;-80
2024/01/24 10:37:32;;;;;;;2.47;0.70;;;;;;;14.13;67.38;97985.63;4914338;29;20036;-78
2024/01/24 10:40:03;;;;;;;5.70;1.48;;;;;;;14.08;67.48;97976.94;4912206;29;20039;-79
2024/01/24 10:42:34;;;;;;;2.53;0.80;;;;;;;13.87;67.02;97976.72;4917140;29;20082;-78
2024/01/24 10:45:03;;;;;;;2.88;1.65;;;;;;;14.07;66.86;97977.97;4905456;29;20043;-79
2024/01/24 10:47:29;;;;;;;2.35;0.80;;;;;;;14.23;67.11;97980.50;4914025;29;20127;-78
2024/01/24 10:49:55;;;;;;;1.80;0.70;;;;;;;14.33;66.83;97977.19;4917046;29;20536;-77
2024/01/24 10:52:22;;;;;;;2.33;0.80;;;;;;;14.48;66.70;97957.38;4907033;29;20040;-79
2024/01/24 10:54:48;;;;;;;2.78;0.70;;;;;;;14.60;66.32;97971.16;4915776;29;20047;-78
2024/01/24 10:57:14;;;;;;;1.00;0.47;;;;;;;14.13;64.70;97963.91;4912104;29;20036;-77
2024/01/24 10:59:41;;;;;;;2.63;0.93;;;;;;;14.45;65.38;97971.00;4897198;29;20032;-79
2024/01/24 11:02:07;;;;;;;5.05;1.08;;;;;;;14.33;64.62;97953.59;4910114;29;20076;-78
2024/01/24 11:04:34;;;;;;;1.70;0.60;;;;;;;14.29;64.18;97968.25;4916501;29;20539;-79
2024/01/24 11:07:04;;;;;;;2.70;1.10;;;;;;;14.61;63.51;97967.47;4897875;29;20404;-80
2024/01/24 11:09:53;;;;;;;2.47;0.85;;;;;;;14.43;63.09;97979.91;4914887;29;20036;-78
2024/01/24 11:12:19;;;;;;;3.28;0.70;;;;;;;14.51;62.75;97996.19;4917827;29;20662;-77
2024/01/24 11:14:46;;;;;;;3.65;0.70;;;;;;;14.35;61.44;97982.97;4902328;29;20038;-77
2024/01/24 11:17:12;;;;;;;4.35;0.77;;;;;;;14.64;61.62;97966.22;4917160;29;20095;-78
2024/01/24 11:19:37;;;;;;;2.38;1.10;;;;;;;14.54;61.02;97979.97;4915918;29;20448;-78
2024/01/24 11:22:09;;;;;;;4.05;0.93;;;;;;;14.65;60.35;97989.53;4898710;29;20062;-78
2024/01/24 11:24:40;;;;;;;5.38;0.90;;;;;;;14.56;61.39;97985.75;4899638;29;20102;-78
2024/01/24 11:27:37;;;;;;;3.38;1.10;;;;;;;14.70;59.83;97994.84;4914999;29;20035;-78